Time;durP1;ratioP1;P1;durP2;ratioP2;P2;SDS_P1;SDS_P2;PMS_P1;PMS_P2;Temp;Humidity;BMP_temperature;BMP_pressure;BME280_temperature;BME280_humidity;BME280_pressure;Samples;Min_cycle;Max_cycle;Signal;HPM_P1;HPM_P2
2021/08/01 00:00:52;;;;;;;4.43;4.07;;;21.50;85.60;;;;;;5107067;27;20466;-67
2021/08/01 00:03:20;;;;;;;8.10;4.73;;;21.50;85.80;;;;;;5112383;28;20457;-67
2021/08/01 00:05:47;;;;;;;5.10;3.87;;;21.50;85.80;;;;;;5105939;27;20470;-67
2021/08/01 00:08:14;;;;;;;2.77;2.57;;;21.40;86.10;;;;;;5104092;27;20533;-67
2021/08/01 00:10:41;;;;;;;2.33;2.13;;;21.40;86.30;;;;;;5099428;28;20984;-67
2021/08/01 00:13:08;;;;;;;3.90;2.50;;;21.40;86.50;;;;;;5104901;28;20460;-67
2021/08/01 00:15:35;;;;;;;4.03;3.10;;;21.40;86.70;;;;;;5106508;28;20850;-67
2021/08/01 00:20:47;;;;;;;3.13;2.90;;;21.30;86.90;;;;;;5086112;28;20964;-66
2021/08/01 00:23:13;;;;;;;5.53;5.03;;;21.30;87.10;;;;;;5098997;28;20492;-66
2021/08/01 00:25:40;;;;;;;3.90;3.50;;;21.30;87.20;;;;;;5105681;28;20530;-66
2021/08/01 00:28:07;;;;;;;4.90;4.00;;;21.30;87.30;;;;;;5112390;27;20796;-67
2021/08/01 00:30:34;;;;;;;4.77;3.43;;;21.30;87.30;;;;;;5112540;28;20525;-67
2021/08/01 00:33:01;;;;;;;6.70;6.10;;;21.30;87.30;;;;;;5104307;27;20967;-67
2021/08/01 00:35:28;;;;;;;4.40;3.20;;;21.30;87.60;;;;;;5106863;28;20546;-66
2021/08/01 00:37:56;;;;;;;4.93;3.70;;;21.20;87.60;;;;;;5110152;27;20484;-66
2021/08/01 00:40:23;;;;;;;3.40;2.67;;;21.20;87.60;;;;;;5106940;28;20464;-67
2021/08/01 00:42:50;;;;;;;4.00;3.60;;;21.20;87.80;;;;;;5110682;27;20487;-65
2021/08/01 00:45:18;;;;;;;2.60;2.50;;;21.20;88.00;;;;;;5116162;27;20848;-66
2021/08/01 00:47:45;;;;;;;7.00;5.57;;;21.20;88.20;;;;;;5103309;28;20472;-66
2021/08/01 00:50:14;;;;;;;4.53;4.10;;;21.20;88.50;;;;;;5112064;28;20474;-66
2021/08/01 00:52:41;;;;;;;3.63;3.17;;;21.10;88.70;;;;;;5111163;28;20480;-66
2021/08/01 00:55:11;;;;;;;3.03;2.43;;;21.20;88.80;;;;;;5108980;28;20464;-66
2021/08/01 00:57:39;;;;;;;2.10;2.00;;;21.10;88.80;;;;;;5105082;27;20530;-67
2021/08/01 01:00:14;;;;;;;2.30;2.20;;;21.10;88.90;;;;;;5113526;27;20857;-66
2021/08/01 01:02:45;;;;;;;4.83;4.40;;;21.10;89.00;;;;;;5101694;28;20579;-66
2021/08/01 01:05:22;;;;;;;4.30;2.77;;;21.10;89.20;;;;;;5109310;27;20460;-66
2021/08/01 01:07:57;;;;;;;2.70;2.50;;;21.10;89.30;;;;;;5105041;27;20984;-66
2021/08/01 01:10:30;;;;;;;2.73;2.50;;;21.10;89.40;;;;;;5108047;27;21259;-67
2021/08/01 01:13:10;;;;;;;4.83;2.20;;;21.00;89.40;;;;;;5113276;27;21019;-66
2021/08/01 01:15:44;;;;;;;3.93;2.40;;;21.00;89.50;;;;;;5102795;27;20486;-66
2021/08/01 01:18:14;;;;;;;4.87;2.90;;;21.00;89.70;;;;;;5109406;28;20552;-66
2021/08/01 01:20:59;;;;;;;3.17;2.87;;;21.00;89.90;;;;;;5116517;27;20543;-66
2021/08/01 01:23:39;;;;;;;3.33;3.10;;;20.90;89.90;;;;;;5110302;28;20548;-66
2021/08/01 01:26:12;;;;;;;1.77;1.67;;;20.90;90.10;;;;;;5103064;28;20533;-66
2021/08/01 01:28:43;;;;;;;2.40;2.20;;;20.90;90.20;;;;;;5111710;28;20543;-67
2021/08/01 01:31:29;;;;;;;3.20;2.70;;;20.80;90.20;;;;;;5111943;27;20467;-67
2021/08/01 01:34:08;;;;;;;3.50;3.20;;;20.80;90.30;;;;;;5114813;27;20468;-66
2021/08/01 01:36:37;;;;;;;6.30;2.80;;;20.80;90.40;;;;;;5109127;27;20456;-66
2021/08/01 01:39:06;;;;;;;3.07;2.77;;;20.80;90.40;;;;;;5112876;27;20465;-66
2021/08/01 01:41:34;;;;;;;4.10;3.60;;;20.80;90.50;;;;;;5108456;27;20535;-66
2021/08/01 01:44:02;;;;;;;2.87;2.57;;;20.80;90.50;;;;;;5106905;28;20531;-66
2021/08/01 01:46:29;;;;;;;2.53;2.33;;;20.80;90.50;;;;;;5108074;27;20461;-66
2021/08/01 01:48:57;;;;;;;3.27;2.90;;;20.80;90.60;;;;;;5113705;28;20612;-67
2021/08/01 01:51:24;;;;;;;6.00;3.90;;;20.80;90.70;;;;;;5106984;28;20453;-66
2021/08/01 01:53:53;;;;;;;2.90;2.37;;;20.80;90.80;;;;;;5113549;28;20460;-66
2021/08/01 01:56:22;;;;;;;2.60;2.40;;;20.70;90.80;;;;;;5104133;27;20540;-66
2021/08/01 01:58:49;;;;;;;2.00;1.90;;;20.70;90.90;;;;;;5106292;27;20540;-66
2021/08/01 02:01:17;;;;;;;2.47;2.27;;;20.70;90.90;;;;;;5114717;27;20860;-66
2021/08/01 02:03:44;;;;;;;2.87;2.67;;;20.70;91.00;;;;;;5113272;28;20830;-66
2021/08/01 02:09:08;;;;;;;3.13;2.83;;;20.70;91.10;;;;;;5084799;28;20468;-66
2021/08/01 02:11:46;;;;;;;5.90;3.00;;;20.70;91.20;;;;;;5114010;27;20538;-66
2021/08/01 02:14:17;;;;;;;5.33;2.90;;;20.70;91.20;;;;;;5104174;28;20464;-66
2021/08/01 02:16:54;;;;;;;4.90;4.40;;;20.60;91.20;;;;;;5107029;28;20518;-66
2021/08/01 02:19:25;;;;;;;3.80;3.50;;;20.60;91.40;;;;;;5102456;28;21000;-66
2021/08/01 02:21:52;;;;;;;3.07;2.77;;;20.70;91.50;;;;;;5107987;27;20523;-66
2021/08/01 02:24:21;;;;;;;3.07;2.87;;;20.60;91.40;;;;;;5112336;27;20840;-66
2021/08/01 02:26:49;;;;;;;2.70;2.50;;;20.60;91.50;;;;;;5101446;28;20464;-66
2021/08/01 02:29:17;;;;;;;2.53;2.33;;;20.60;91.50;;;;;;5114037;27;20468;-66
2021/08/01 02:31:44;;;;;;;4.17;3.00;;;20.60;91.60;;;;;;5101022;28;20600;-66
2021/08/01 02:34:12;;;;;;;3.73;3.30;;;20.60;91.70;;;;;;5114082;27;20949;-67
2021/08/01 02:36:40;;;;;;;3.50;3.07;;;20.60;91.80;;;;;;5109281;27;20962;-66
2021/08/01 02:39:08;;;;;;;4.10;3.73;;;20.60;91.90;;;;;;5114333;27;20469;-66
2021/08/01 02:41:39;;;;;;;6.53;4.20;;;20.60;92.10;;;;;;5101086;28;20526;-66
2021/08/01 02:44:10;;;;;;;3.70;3.40;;;20.60;92.20;;;;;;5108307;27;20553;-66
2021/08/01 02:46:39;;;;;;;5.80;3.60;;;20.50;92.20;;;;;;5107824;27;20503;-67
2021/08/01 02:49:11;;;;;;;2.97;2.77;;;20.50;92.30;;;;;;5103327;28;20473;-66
2021/08/01 02:51:38;;;;;;;3.20;2.90;;;20.40;92.40;;;;;;5105036;28;20473;-65
2021/08/01 02:54:06;;;;;;;4.87;2.90;;;20.50;92.50;;;;;;5107208;28;20547;-66
2021/08/01 02:56:40;;;;;;;3.67;3.37;;;20.40;92.50;;;;;;5111778;27;20541;-66
2021/08/01 02:59:08;;;;;;;3.20;3.00;;;20.40;92.60;;;;;;5100213;28;20981;-66
2021/08/01 03:01:58;;;;;;;2.83;2.63;;;20.40;92.80;;;;;;5107173;27;20456;-66
2021/08/01 03:04:26;;;;;;;2.67;2.53;;;20.40;92.90;;;;;;5102452;27;20460;-65
2021/08/01 03:06:54;;;;;;;3.43;3.13;;;20.30;92.90;;;;;;5109971;27;20465;-66
2021/08/01 03:09:21;;;;;;;3.90;2.80;;;20.30;93.10;;;;;;5112981;27;20962;-66
2021/08/01 03:11:50;;;;;;;3.57;3.00;;;20.20;93.20;;;;;;5113687;28;20464;-66
2021/08/01 03:14:17;;;;;;;3.47;3.23;;;20.20;93.30;;;;;;5112661;28;20464;-66
2021/08/01 03:16:44;;;;;;;2.70;2.50;;;20.20;93.40;;;;;;5101705;28;20476;-66
2021/08/01 03:19:10;;;;;;;4.80;4.23;;;20.20;93.80;;;;;;5110154;28;20522;-65
2021/08/01 03:21:37;;;;;;;4.47;4.17;;;20.20;93.50;;;;;;5111317;28;20848;-66
2021/08/01 03:24:05;;;;;;;3.27;2.90;;;20.20;93.50;;;;;;5104253;28;20461;-66
2021/08/01 03:26:32;;;;;;;4.13;3.83;;;20.20;93.60;;;;;;5109584;28;20457;-66
2021/08/01 03:29:00;;;;;;;3.47;3.17;;;20.20;93.70;;;;;;5109705;27;20474;-66
2021/08/01 03:31:27;;;;;;;3.50;3.30;;;20.20;93.70;;;;;;5110158;27;20472;-66
2021/08/01 03:33:54;;;;;;;4.00;3.50;;;20.10;93.70;;;;;;5109977;27;20483;-66
2021/08/01 03:36:21;;;;;;;3.73;3.40;;;20.10;93.90;;;;;;5101690;27;20469;-66
2021/08/01 03:38:48;;;;;;;4.40;4.10;;;20.10;93.90;;;;;;5108332;27;20468;-66
2021/08/01 03:41:14;;;;;;;3.93;3.63;;;20.10;94.00;;;;;;5100393;28;20470;-66
2021/08/01 03:43:41;;;;;;;3.13;2.93;;;20.10;94.00;;;;;;5111086;28;20465;-66
2021/08/01 03:46:10;;;;;;;8.40;5.00;;;20.10;94.00;;;;;;5110807;27;20506;-66
2021/08/01 03:48:36;;;;;;;6.10;5.50;;;20.10;94.10;;;;;;5112805;27;20469;-66
2021/08/01 03:51:03;;;;;;;4.83;3.80;;;20.10;94.20;;;;;;5108139;28;20541;-66
2021/08/01 03:53:32;;;;;;;4.90;4.50;;;20.10;94.30;;;;;;5108371;28;20840;-66
2021/08/01 03:56:02;;;;;;;5.17;4.03;;;20.10;94.30;;;;;;5112132;28;21015;-66
2021/08/01 03:58:29;;;;;;;4.20;3.67;;;20.10;94.40;;;;;;5102387;27;20508;-66
2021/08/01 04:00:56;;;;;;;3.80;3.50;;;20.10;94.40;;;;;;5099510;27;20464;-66
2021/08/01 04:03:24;;;;;;;5.70;4.80;;;20.20;94.60;;;;;;5106900;28;20524;-66
2021/08/01 04:05:51;;;;;;;4.93;4.53;;;20.20;94.60;;;;;;5106122;27;20831;-65
2021/08/01 04:08:18;;;;;;;4.20;3.20;;;20.10;94.70;;;;;;5106125;27;20875;-65
2021/08/01 04:10:45;;;;;;;4.37;3.50;;;20.10;94.70;;;;;;5105916;27;20481;-65
2021/08/01 04:13:12;;;;;;;4.40;4.00;;;20.10;94.80;;;;;;5105036;28;20525;-65
2021/08/01 04:15:39;;;;;;;3.67;3.30;;;20.20;94.90;;;;;;5106546;28;20469;-65
2021/08/01 04:18:06;;;;;;;3.63;3.00;;;20.20;95.00;;;;;;5096854;27;20481;-65
2021/08/01 04:20:34;;;;;;;3.53;3.23;;;20.10;95.00;;;;;;5104455;28;20519;-66
2021/08/01 04:23:01;;;;;;;6.37;5.73;;;20.20;95.20;;;;;;5110869;28;20468;-65
2021/08/01 04:25:28;;;;;;;4.77;4.37;;;20.10;95.20;;;;;;5096215;28;20790;-65
2021/08/01 04:27:54;;;;;;;11.40;10.30;;;20.10;95.30;;;;;;5110809;27;20472;-65
2021/08/01 04:30:22;;;;;;;5.83;5.30;;;20.20;95.40;;;;;;5106873;28;20468;-65
2021/08/01 04:32:49;;;;;;;5.10;4.67;;;20.20;95.30;;;;;;5102847;27;20461;-66
2021/08/01 04:35:16;;;;;;;6.93;6.30;;;20.30;95.30;;;;;;5104503;27;20472;-66
2021/08/01 04:37:44;;;;;;;11.43;7.43;;;20.30;95.30;;;;;;5108400;27;20468;-66
2021/08/01 04:40:12;;;;;;;6.87;6.27;;;20.30;95.30;;;;;;5100283;28;20518;-66
2021/08/01 04:42:39;;;;;;;12.00;10.60;;;20.30;95.30;;;;;;5104486;28;21222;-66
2021/08/01 04:45:07;;;;;;;6.43;5.83;;;20.30;95.30;;;;;;5109431;27;21067;-66
2021/08/01 04:47:34;;;;;;;9.50;6.13;;;20.40;95.30;;;;;;5098813;28;21054;-66
2021/08/01 04:50:01;;;;;;;6.37;5.83;;;20.40;95.20;;;;;;5108609;28;20529;-66
2021/08/01 04:52:27;;;;;;;4.10;3.80;;;20.40;95.30;;;;;;5108959;28;20694;-66
2021/08/01 04:54:56;;;;;;;8.90;8.07;;;20.40;95.30;;;;;;5103045;28;20468;-66
2021/08/01 04:57:23;;;;;;;5.17;4.77;;;20.40;95.30;;;;;;5107781;28;20521;-66
2021/08/01 04:59:49;;;;;;;7.23;6.53;;;20.40;95.30;;;;;;5101744;28;20527;-66
2021/08/01 05:02:16;;;;;;;4.40;4.10;;;20.40;95.40;;;;;;5105501;28;20466;-66
2021/08/01 05:04:43;;;;;;;5.50;5.00;;;20.40;95.50;;;;;;5112333;27;20461;-66
2021/08/01 05:07:12;;;;;;;5.00;4.60;;;20.40;95.60;;;;;;5099196;28;20522;-65
2021/08/01 05:09:39;;;;;;;3.77;3.50;;;20.40;95.60;;;;;;5112014;28;20469;-66
2021/08/01 05:12:07;;;;;;;4.17;3.87;;;20.40;95.60;;;;;;5112144;27;20860;-66
2021/08/01 05:14:34;;;;;;;4.37;3.90;;;20.40;95.70;;;;;;5101277;28;20465;-66
2021/08/01 05:17:01;;;;;;;5.03;4.63;;;20.50;95.80;;;;;;5111560;28;20465;-66
2021/08/01 05:19:28;;;;;;;4.60;4.20;;;20.50;95.80;;;;;;5098727;28;20482;-66
2021/08/01 05:21:55;;;;;;;3.77;3.47;;;20.50;95.80;;;;;;5105754;28;20542;-67
2021/08/01 05:24:21;;;;;;;6.00;3.53;;;20.50;95.90;;;;;;5106543;28;20479;-66
2021/08/01 05:26:48;;;;;;;4.03;3.60;;;20.50;96.00;;;;;;5102669;28;20472;-66
2021/08/01 05:29:17;;;;;;;4.83;4.43;;;20.50;96.00;;;;;;5116254;27;20795;-67
2021/08/01 05:31:43;;;;;;;4.57;4.10;;;20.40;96.10;;;;;;5102475;28;21360;-66
2021/08/01 05:34:10;;;;;;;5.30;4.80;;;20.50;96.20;;;;;;5116303;28;20471;-66
2021/08/01 05:36:37;;;;;;;4.60;4.30;;;20.50;96.20;;;;;;5102268;28;20540;-66
2021/08/01 05:39:04;;;;;;;5.37;4.83;;;20.50;96.20;;;;;;5115819;28;20487;-66
2021/08/01 05:41:31;;;;;;;4.33;4.03;;;20.50;96.30;;;;;;5102426;28;20833;-66
2021/08/01 05:43:58;;;;;;;7.33;3.93;;;20.50;96.20;;;;;;5102051;27;20476;-67
2021/08/01 05:46:30;;;;;;;4.90;4.50;;;20.50;96.30;;;;;;5115523;27;20468;-67
2021/08/01 05:48:57;;;;;;;4.40;3.60;;;20.60;96.70;;;;;;5114948;28;20600;-66
2021/08/01 05:51:24;;;;;;;5.70;3.70;;;20.60;96.30;;;;;;5103356;28;20473;-66
2021/08/01 05:53:51;;;;;;;4.53;4.07;;;20.60;96.20;;;;;;5102092;28;20518;-66
2021/08/01 05:56:18;;;;;;;3.80;3.50;;;20.60;96.30;;;;;;5107332;27;20780;-66
2021/08/01 05:58:45;;;;;;;4.17;3.87;;;20.60;96.30;;;;;;5108398;28;20533;-66
2021/08/01 06:01:13;;;;;;;4.33;4.03;;;20.60;96.30;;;;;;5104213;28;20537;-66
2021/08/01 06:03:42;;;;;;;4.63;4.13;;;20.60;96.20;;;;;;5101346;28;20465;-66
2021/08/01 06:06:11;;;;;;;5.90;5.40;;;20.70;96.20;;;;;;5115686;27;20468;-66
2021/08/01 06:08:38;;;;;;;4.20;3.80;;;20.70;96.20;;;;;;5114979;27;20480;-66
2021/08/01 06:11:05;;;;;;;4.50;4.10;;;20.70;96.20;;;;;;5115623;27;20533;-66
2021/08/01 06:13:32;;;;;;;4.90;4.60;;;20.70;96.20;;;;;;5099916;28;20547;-66
2021/08/01 06:15:59;;;;;;;6.70;5.00;;;20.80;96.10;;;;;;5105329;27;20468;-66
2021/08/01 06:18:26;;;;;;;5.20;3.93;;;20.80;96.00;;;;;;5111433;28;20988;-67
2021/08/01 06:21:04;;;;;;;5.43;5.03;;;20.80;96.00;;;;;;5105491;27;20460;-66
2021/08/01 06:23:31;;;;;;;5.00;4.20;;;20.90;96.00;;;;;;5114840;28;20525;-66
2021/08/01 06:25:58;;;;;;;4.40;4.03;;;20.90;95.90;;;;;;5103346;28;20469;-66
2021/08/01 06:28:25;;;;;;;4.00;3.13;;;20.90;95.70;;;;;;5113319;27;20540;-66
2021/08/01 06:30:52;;;;;;;3.40;3.10;;;21.00;95.30;;;;;;5115049;28;20488;-66
2021/08/01 06:33:19;;;;;;;3.77;3.03;;;21.00;95.30;;;;;;5101562;28;20522;-66
2021/08/01 06:35:46;;;;;;;4.33;3.30;;;21.00;95.30;;;;;;5113843;27;20841;-66
2021/08/01 06:38:14;;;;;;;3.83;3.53;;;21.00;95.30;;;;;;5108440;28;20598;-66
2021/08/01 06:40:41;;;;;;;3.10;2.90;;;21.00;95.10;;;;;;5107859;28;20841;-66
2021/08/01 06:43:08;;;;;;;3.00;2.80;;;21.10;95.00;;;;;;5101076;28;20464;-66
2021/08/01 06:45:35;;;;;;;3.97;3.57;;;21.10;94.90;;;;;;5114289;27;20991;-66
2021/08/01 06:48:02;;;;;;;3.17;2.77;;;21.10;94.80;;;;;;5114854;27;20616;-66
2021/08/01 06:50:29;;;;;;;3.17;2.87;;;21.20;94.70;;;;;;5111227;28;20469;-66
2021/08/01 06:52:56;;;;;;;2.80;2.60;;;21.20;94.50;;;;;;5114792;28;20529;-67
2021/08/01 06:55:24;;;;;;;3.13;2.83;;;21.20;94.40;;;;;;5100993;28;20465;-66
2021/08/01 06:57:51;;;;;;;3.40;3.10;;;21.30;94.20;;;;;;5104590;28;20959;-66
2021/08/01 07:00:20;;;;;;;3.13;2.77;;;21.30;94.10;;;;;;5107811;27;20473;-66
2021/08/01 07:02:51;;;;;;;2.70;2.50;;;21.30;94.10;;;;;;5103832;28;20468;-66
2021/08/01 07:05:19;;;;;;;2.90;2.70;;;21.30;94.10;;;;;;5100318;28;20525;-66
2021/08/01 07:07:45;;;;;;;3.03;2.80;;;21.30;94.10;;;;;;5103195;28;20469;-66
2021/08/01 07:10:12;;;;;;;2.70;2.50;;;21.40;93.90;;;;;;5114508;28;20514;-65
2021/08/01 07:12:42;;;;;;;3.93;2.50;;;21.40;93.90;;;;;;5102812;27;20511;-66
2021/08/01 07:15:10;;;;;;;2.87;2.67;;;21.50;94.00;;;;;;5106654;28;20460;-66
2021/08/01 07:17:37;;;;;;;3.80;3.50;;;21.50;93.90;;;;;;5113792;27;20479;-66
2021/08/01 07:20:06;;;;;;;3.47;3.17;;;21.50;94.00;;;;;;5100431;28;20537;-66
2021/08/01 07:22:33;;;;;;;4.10;3.70;;;21.50;94.00;;;;;;5101233;28;21026;-65
2021/08/01 07:25:00;;;;;;;3.53;3.23;;;21.50;94.00;;;;;;5107518;28;20523;-66
2021/08/01 07:27:27;;;;;;;3.53;3.23;;;21.50;94.00;;;;;;5106347;27;20457;-66
2021/08/01 07:29:55;;;;;;;3.30;3.00;;;21.50;94.10;;;;;;5113583;28;21247;-67
2021/08/01 07:32:22;;;;;;;3.97;3.43;;;21.50;94.10;;;;;;5100954;28;20477;-67
2021/08/01 07:34:49;;;;;;;3.13;2.93;;;21.50;94.10;;;;;;5111939;27;20506;-67
2021/08/01 07:37:16;;;;;;;3.10;2.90;;;21.60;94.20;;;;;;5113761;27;20475;-67
2021/08/01 07:39:44;;;;;;;3.50;3.03;;;21.60;94.10;;;;;;5106496;28;20469;-67
2021/08/01 07:42:11;;;;;;;3.63;3.37;;;21.70;94.20;;;;;;5107194;28;20580;-67
2021/08/01 07:44:47;;;;;;;3.17;2.90;;;21.70;94.20;;;;;;5099995;28;20520;-66
2021/08/01 07:47:16;;;;;;;3.50;2.50;;;21.80;93.90;;;;;;5113419;27;20860;-65
2021/08/01 07:49:43;;;;;;;3.17;2.97;;;21.90;93.80;;;;;;5113227;28;20504;-66
2021/08/01 07:52:10;;;;;;;3.30;3.00;;;21.90;93.90;;;;;;5099932;28;20465;-66
2021/08/01 07:54:39;;;;;;;6.27;3.27;;;22.00;93.80;;;;;;5103390;28;20515;-66
2021/08/01 07:57:06;;;;;;;3.77;3.07;;;22.00;93.80;;;;;;5106604;28;20647;-66
2021/08/01 07:59:33;;;;;;;3.80;3.50;;;22.00;93.80;;;;;;5102910;28;20908;-66
2021/08/01 08:02:00;;;;;;;3.13;2.93;;;22.10;93.80;;;;;;5099897;28;20464;-66
2021/08/01 08:04:28;;;;;;;3.20;3.00;;;22.10;93.70;;;;;;5102783;28;20563;-66
2021/08/01 08:06:55;;;;;;;3.63;3.43;;;22.10;93.60;;;;;;5106452;28;20461;-65
2021/08/01 08:12:07;;;;;;;4.37;3.50;;;22.20;93.50;;;;;;5106234;28;20795;-66
2021/08/01 08:14:34;;;;;;;2.97;2.77;;;22.20;93.30;;;;;;5101555;28;20519;-66
2021/08/01 08:17:01;;;;;;;3.87;3.50;;;22.20;93.30;;;;;;5113085;28;20518;-66
2021/08/01 08:19:29;;;;;;;4.10;3.80;;;22.20;93.30;;;;;;5099250;28;20815;-66
2021/08/01 08:21:57;;;;;;;3.77;3.40;;;22.20;93.40;;;;;;5104908;28;20473;-67
2021/08/01 08:24:24;;;;;;;3.60;3.30;;;22.20;93.40;;;;;;5106292;28;20476;-66
2021/08/01 08:26:51;;;;;;;3.23;3.03;;;22.20;93.20;;;;;;5100632;27;20526;-66
2021/08/01 08:29:18;;;;;;;3.13;2.83;;;22.20;93.20;;;;;;5112798;28;20525;-67
2021/08/01 08:31:50;;;;;;;3.17;2.97;;;22.20;93.20;;;;;;5104537;28;20870;-67
2021/08/01 08:34:18;;;;;;;3.50;3.20;;;22.20;93.40;;;;;;5107122;28;20460;-67
2021/08/01 08:36:49;;;;;;;6.60;3.63;;;22.30;93.30;;;;;;5112685;27;20548;-66
2021/08/01 08:39:17;;;;;;;4.57;4.20;;;22.30;93.30;;;;;;5109731;28;20493;-66
2021/08/01 08:41:44;;;;;;;3.50;3.20;;;22.40;93.20;;;;;;5102440;28;20522;-66
2021/08/01 08:44:11;;;;;;;10.40;3.27;;;22.50;92.90;;;;;;5099326;28;20517;-66
2021/08/01 08:46:39;;;;;;;7.23;3.13;;;22.60;92.70;;;;;;5112668;27;20525;-67
2021/08/01 08:49:09;;;;;;;3.57;3.20;;;22.60;92.70;;;;;;5112280;27;20798;-67
2021/08/01 08:51:38;;;;;;;3.87;2.90;;;22.70;92.60;;;;;;5101205;28;20544;-66
2021/08/01 08:54:11;;;;;;;3.67;3.43;;;22.80;92.50;;;;;;5105804;28;20553;-67
2021/08/01 08:56:39;;;;;;;4.43;3.27;;;22.80;92.40;;;;;;5105587;28;21027;-66
2021/08/01 08:59:06;;;;;;;2.77;2.57;;;22.80;92.20;;;;;;5099966;28;20553;-67
2021/08/01 09:01:33;;;;;;;3.13;2.90;;;22.90;92.30;;;;;;5102977;28;20856;-66
2021/08/01 09:04:00;;;;;;;3.23;3.03;;;23.00;92.00;;;;;;5109516;27;20515;-66
2021/08/01 09:06:30;;;;;;;4.50;3.53;;;23.00;91.90;;;;;;5109789;28;20468;-65
2021/08/01 09:08:57;;;;;;;3.20;3.00;;;23.00;91.80;;;;;;5105978;27;20488;-66
2021/08/01 09:11:26;;;;;;;4.20;3.80;;;23.00;91.90;;;;;;5116071;27;20802;-66
2021/08/01 09:13:54;;;;;;;5.60;3.90;;;23.10;92.00;;;;;;5103489;27;20464;-67
2021/08/01 09:16:23;;;;;;;3.30;3.00;;;23.10;92.00;;;;;;5111203;27;20460;-67
2021/08/01 09:18:50;;;;;;;3.50;3.23;;;23.00;91.80;;;;;;5108162;28;20466;-66
2021/08/01 09:21:34;;;;;;;3.80;3.50;;;23.00;91.70;;;;;;5109854;28;20535;-66
2021/08/01 09:24:01;;;;;;;3.30;3.10;;;23.10;91.70;;;;;;5114356;27;20488;-66
2021/08/01 09:26:43;;;;;;;3.87;3.47;;;23.20;91.40;;;;;;5113323;27;20468;-67
2021/08/01 09:29:10;;;;;;;3.27;3.07;;;23.20;91.30;;;;;;5115955;27;20472;-67
2021/08/01 09:31:38;;;;;;;3.30;3.10;;;23.30;91.40;;;;;;5109730;27;20533;-65
2021/08/01 09:34:22;;;;;;;6.90;3.73;;;23.40;91.20;;;;;;5108541;28;20468;-66
2021/08/01 09:37:02;;;;;;;5.30;3.20;;;23.40;90.90;;;;;;5104275;28;20998;-66
2021/08/01 09:39:29;;;;;;;4.10;3.70;;;23.40;90.90;;;;;;5112108;28;20572;-66
2021/08/01 09:42:03;;;;;;;3.70;3.00;;;23.40;91.10;;;;;;5106251;28;20468;-66
2021/08/01 09:44:31;;;;;;;3.50;3.20;;;23.40;90.90;;;;;;5102173;27;21025;-67
2021/08/01 09:46:58;;;;;;;3.97;3.73;;;23.40;90.90;;;;;;5115063;27;20468;-65
2021/08/01 09:49:28;;;;;;;3.50;3.30;;;23.40;90.90;;;;;;5115836;28;20460;-66
2021/08/01 09:51:57;;;;;;;4.40;4.00;;;23.40;91.10;;;;;;5105923;27;20552;-66
2021/08/01 09:54:26;;;;;;;4.93;4.53;;;23.40;91.30;;;;;;5112190;28;20547;-66
2021/08/01 09:56:59;;;;;;;4.20;3.80;;;23.40;91.30;;;;;;5105487;28;20465;-65
2021/08/01 09:59:28;;;;;;;3.53;3.20;;;23.50;91.20;;;;;;5108630;28;20549;-66
2021/08/01 10:01:58;;;;;;;4.73;3.43;;;23.50;91.20;;;;;;5106520;28;20969;-67
2021/08/01 10:04:26;;;;;;;4.03;3.63;;;23.50;91.30;;;;;;5101860;28;20539;-67
2021/08/01 10:07:02;;;;;;;3.60;3.30;;;23.50;90.90;;;;;;5102852;28;20527;-66
2021/08/01 10:09:29;;;;;;;4.20;3.90;;;23.60;90.80;;;;;;5114855;27;20544;-66
2021/08/01 10:11:56;;;;;;;3.50;3.27;;;23.60;90.70;;;;;;5113912;27;20502;-66
2021/08/01 10:14:24;;;;;;;3.60;3.30;;;23.60;90.50;;;;;;5102158;27;20468;-66
2021/08/01 10:16:52;;;;;;;3.90;3.30;;;23.60;90.40;;;;;;5101382;28;20495;-66
2021/08/01 10:19:20;;;;;;;2.63;2.43;;;23.60;90.40;;;;;;5108107;28;20465;-67
2021/08/01 10:21:50;;;;;;;3.70;3.40;;;23.70;90.50;;;;;;5108720;28;21153;-66
2021/08/01 10:24:21;;;;;;;3.67;3.37;;;23.70;90.50;;;;;;5103157;28;20839;-67
2021/08/01 10:26:52;;;;;;;4.07;3.77;;;23.70;90.70;;;;;;5103060;28;20547;-67
2021/08/01 10:29:25;;;;;;;3.50;3.20;;;23.60;90.80;;;;;;5114879;27;21849;-66
2021/08/01 10:31:58;;;;;;;4.27;3.97;;;23.70;90.90;;;;;;5101617;27;20869;-66
2021/08/01 10:34:40;;;;;;;4.63;4.07;;;23.80;90.90;;;;;;5104795;28;20518;-67
2021/08/01 10:37:12;;;;;;;4.00;3.70;;;23.80;90.70;;;;;;5101711;28;20526;-65
2021/08/01 10:39:41;;;;;;;3.70;3.40;;;23.80;90.50;;;;;;5113795;27;20473;-65
2021/08/01 10:42:11;;;;;;;3.13;2.93;;;23.80;90.40;;;;;;5102899;28;20472;-65
2021/08/01 10:44:38;;;;;;;3.03;2.83;;;23.80;90.40;;;;;;5101224;27;20530;-66
2021/08/01 10:47:09;;;;;;;3.53;3.03;;;23.90;90.30;;;;;;5114391;27;21005;-65
2021/08/01 10:49:41;;;;;;;4.67;3.80;;;23.90;90.30;;;;;;5114733;27;20543;-66
2021/08/01 10:52:10;;;;;;;4.03;3.73;;;23.90;90.40;;;;;;5102694;28;20462;-66
2021/08/01 10:54:38;;;;;;;3.67;3.47;;;23.90;90.20;;;;;;5112871;28;20914;-66
2021/08/01 10:57:15;;;;;;;3.70;3.40;;;23.90;90.20;;;;;;5102436;28;20785;-66
2021/08/01 11:00:16;;;;;;;3.70;3.40;;;23.90;90.40;;;;;;5100969;27;20533;-66
2021/08/01 11:02:44;;;;;;;3.87;3.47;;;23.90;90.50;;;;;;5109420;28;20461;-67
2021/08/01 11:05:35;;;;;;;3.20;2.90;;;23.90;90.50;;;;;;5105955;28;20464;-66
2021/08/01 11:08:03;;;;;;;3.70;3.20;;;23.90;90.40;;;;;;5102234;28;20552;-66
2021/08/01 11:10:30;;;;;;;3.90;3.60;;;23.90;90.20;;;;;;5114328;28;20533;-67
2021/08/01 11:12:57;;;;;;;3.10;2.90;;;23.90;90.10;;;;;;5104781;27;20534;-66
2021/08/01 11:15:47;;;;;;;2.63;2.50;;;23.80;90.10;;;;;;5107506;27;20536;-66
2021/08/01 11:18:15;;;;;;;3.10;2.90;;;23.80;89.70;;;;;;5106313;28;20535;-67
2021/08/01 11:20:49;;;;;;;3.23;3.03;;;23.90;89.10;;;;;;5100361;27;20530;-67
2021/08/01 11:23:16;;;;;;;3.20;2.90;;;23.90;88.70;;;;;;5099625;28;20994;-67
2021/08/01 11:26:13;;;;;;;3.03;2.83;;;23.90;88.50;;;;;;5106669;27;20967;-67
2021/08/01 11:28:42;;;;;;;3.40;3.10;;;23.90;88.40;;;;;;5112797;28;20596;-66
2021/08/01 11:31:18;;;;;;;3.50;3.30;;;24.00;88.30;;;;;;5106554;28;20540;-66
2021/08/01 11:33:49;;;;;;;3.77;3.47;;;24.00;88.30;;;;;;5099625;28;20684;-66
2021/08/01 11:36:27;;;;;;;4.00;3.70;;;24.00;88.40;;;;;;5113748;27;20465;-66
2021/08/01 11:39:07;;;;;;;4.10;3.80;;;24.10;88.40;;;;;;5104437;28;20454;-66
2021/08/01 11:41:48;;;;;;;3.73;3.43;;;24.10;88.30;;;;;;5106542;28;20556;-66
2021/08/01 11:44:20;;;;;;;3.90;3.60;;;24.10;88.30;;;;;;5106248;28;20466;-65
2021/08/01 11:47:12;;;;;;;3.60;3.03;;;24.20;88.90;;;;;;5106812;27;20482;-65
2021/08/01 11:49:49;;;;;;;3.23;2.83;;;24.20;87.40;;;;;;5113049;28;20487;-65
2021/08/01 11:52:22;;;;;;;3.80;3.60;;;24.20;87.30;;;;;;5101056;28;20469;-67
2021/08/01 11:54:55;;;;;;;3.30;3.10;;;24.20;87.20;;;;;;5101568;28;20560;-66
2021/08/01 11:57:29;;;;;;;3.20;3.00;;;24.30;87.20;;;;;;5112572;28;20872;-67
2021/08/01 11:59:56;;;;;;;3.00;2.80;;;24.30;86.50;;;;;;5101290;28;20543;-67
2021/08/01 12:02:23;;;;;;;3.93;3.63;;;24.40;86.30;;;;;;5099687;28;20469;-65
2021/08/01 12:04:56;;;;;;;3.50;3.20;;;24.40;86.40;;;;;;5104108;28;20473;-66
2021/08/01 12:07:23;;;;;;;3.90;3.50;;;24.40;86.60;;;;;;5106526;28;20983;-67
2021/08/01 12:09:50;;;;;;;3.50;3.20;;;24.50;86.40;;;;;;5110116;27;20485;-66
2021/08/01 12:12:28;;;;;;;4.73;4.33;;;24.50;86.10;;;;;;5109681;28;20519;-67
2021/08/01 12:14:56;;;;;;;3.77;3.47;;;24.50;85.80;;;;;;5104556;28;20548;-67
2021/08/01 12:17:23;;;;;;;2.63;2.43;;;24.60;85.90;;;;;;5099471;28;20556;-67
2021/08/01 12:19:52;;;;;;;3.33;3.03;;;24.60;85.80;;;;;;5100566;28;20477;-67
2021/08/01 12:22:22;;;;;;;2.93;2.73;;;24.60;85.30;;;;;;5106511;27;20496;-67
2021/08/01 12:24:50;;;;;;;2.47;2.30;;;24.60;84.90;;;;;;5105533;27;20473;-67
2021/08/01 12:27:19;;;;;;;3.00;2.70;;;24.60;84.70;;;;;;5112732;28;20880;-67
2021/08/01 12:29:48;;;;;;;3.23;3.03;;;24.70;84.00;;;;;;5112634;28;20529;-67
2021/08/01 12:32:24;;;;;;;3.20;3.00;;;24.80;84.10;;;;;;5113155;28;20995;-67
2021/08/01 12:34:53;;;;;;;3.07;2.87;;;24.80;83.80;;;;;;5101909;27;21305;-66
2021/08/01 12:37:21;;;;;;;3.37;3.07;;;24.80;83.60;;;;;;5112993;28;20461;-66
2021/08/01 12:39:50;;;;;;;3.20;2.90;;;24.90;83.80;;;;;;5098959;28;20526;-67
2021/08/01 12:42:18;;;;;;;2.70;2.50;;;24.90;83.70;;;;;;5103368;28;20473;-66
2021/08/01 12:44:58;;;;;;;2.83;2.63;;;24.80;83.00;;;;;;5105831;28;20465;-66
2021/08/01 12:47:26;;;;;;;2.63;2.37;;;24.80;82.90;;;;;;5111777;28;20995;-65
2021/08/01 12:49:55;;;;;;;2.80;2.60;;;24.80;83.00;;;;;;5112549;27;20814;-67
2021/08/01 12:52:25;;;;;;;3.50;3.20;;;24.80;83.40;;;;;;5108793;28;20839;-66
2021/08/01 12:54:55;;;;;;;2.90;2.70;;;24.80;83.50;;;;;;5103836;28;20863;-65
2021/08/01 12:57:22;;;;;;;3.57;3.27;;;24.90;84.10;;;;;;5108013;28;20472;-66
2021/08/01 13:00:10;;;;;;;3.20;2.63;;;24.90;84.00;;;;;;5104023;28;20491;-66
2021/08/01 13:02:38;;;;;;;3.40;3.13;;;25.00;84.30;;;;;;5100585;28;20547;-66
2021/08/01 13:05:06;;;;;;;3.60;3.30;;;24.90;83.60;;;;;;5110867;28;21554;-67